Ora Direzione Vento Velocita' Vento Media Vento Raffica Max. Temperatura Wind Chill Pioggia Pressione
02:41:46.00 °(N)0.0 Kts0.0 Kts1.7 Kts0.0 °C0.0 °C0.0 mm1007.0 Hpa
02:21:35.00 °(N)0.0 Kts0.0 Kts1.7 Kts0.0 °C0.0 °C0.0 mm1006.8 Hpa
02:01:17.00 °(N)0.0 Kts0.0 Kts1.7 Kts0.0 °C0.0 °C0.0 mm1006.7 Hpa
01:40:03.0251 °(WSW)0.0 Kts0.0 Kts1.7 Kts6.8 °C6.8 °C0.0 mm1006.9 Hpa
01:21:02.0232 °(SW)0.0 Kts0.0 Kts1.7 Kts6.7 °C6.7 °C0.0 mm1006.7 Hpa
01:00:45.0232 °(SW)0.0 Kts0.0 Kts1.7 Kts6.2 °C6.2 °C0.0 mm1006.7 Hpa
00:41:43.0276 °(W)0.0 Kts0.0 Kts1.7 Kts6.7 °C6.7 °C0.0 mm1006.7 Hpa
00:21:37.0250 °(WSW)0.0 Kts0.0 Kts1.7 Kts7.4 °C7.4 °C0.0 mm1006.8 Hpa
00:01:30.0250 °(WSW)0.0 Kts0.0 Kts5.2 Kts7.1 °C7.1 °C0.0 mm1006.7 Hpa
23:41:15.0232 °(SW)0.9 Kts0.9 Kts5.2 Kts6.7 °C6.7 °C0.0 mm1006.8 Hpa
23:21:14.0211 °(SSW)0.0 Kts0.0 Kts5.2 Kts6.4 °C6.4 °C0.0 mm1006.7 Hpa
23:01:04.0217 °(SW)2.6 Kts0.9 Kts5.2 Kts5.4 °C5.4 °C0.0 mm1006.5 Hpa
22:41:00.0213 °(SSW)2.6 Kts0.9 Kts5.2 Kts5.1 °C5.1 °C0.0 mm1006.4 Hpa
22:20:50.0167 °(SSE)1.7 Kts1.7 Kts5.2 Kts6.0 °C6.0 °C0.0 mm1006.4 Hpa
22:00:46.0222 °(SW)0.9 Kts0.9 Kts5.2 Kts6.3 °C6.3 °C0.0 mm1006.4 Hpa
21:41:41.0220 °(SW)0.0 Kts0.0 Kts5.2 Kts6.6 °C6.6 °C0.0 mm1006.2 Hpa
21:21:38.0211 °(SSW)0.0 Kts0.0 Kts5.2 Kts6.6 °C6.6 °C0.0 mm1006.3 Hpa
21:01:31.0255 °(WSW)0.0 Kts1.7 Kts5.2 Kts6.9 °C6.9 °C0.0 mm1006.0 Hpa
20:39:10.0168 °(SSE)1.7 Kts1.7 Kts5.2 Kts6.6 °C6.6 °C0.0 mm1005.9 Hpa
20:21:17.0198 °(SSW)1.7 Kts1.7 Kts5.2 Kts6.8 °C6.8 °C0.0 mm1005.9 Hpa